»·PEaware :: AAL1097 KSFO-KSBP

AAL1097 :: KSFO-KSBP

FLIGHT INFORMATION

Flight Status: Arrived
Operator:
American Airlines
More flights by this operator :: More flights under this callsign
Pilot: Adam A. (5112)
Aircraft: MCDONNELL-DOUGLAS MD-88
(MD88)
More flights by this aircraft type
Origin: KSFO San Francisco Intl
United States
Destination: KSBP San Luis Co Regl
United States
More flights between these airports :: More routes between these airports
Route: +OFFSH9 MCKEY MQO
File this flight plan on PilotEdge
Remarks:
Altitude:
(Current/Filed)
25,000ft
Speed:
(Current/Filed)
410kts
Departed: 05-Mar-16 09:38 AM
Arrived: 05-Mar-16 10:54 AM
Distance/Time
Traveled:
165nm/1:16
Distance/Time
To Go:
Arrived

Flight Plot

Page will automatically refresh every two minutes.


Map Options




Map Legend


Flown Route
Filed Route
Departure Airport
Arrival Airport
Navaid (VOR, NDB)
Fix

Horizontal Profiles

Position Reports

Time Latitude Longitude Heading Altitude Ground
Speed
05-Mar-16 08:55 37.618365 -122.382041 139 19ft 0kts
05-Mar-16 08:56 37.618365 -122.382041 139 19ft 0kts
05-Mar-16 08:57 37.618365 -122.382041 139 19ft 0kts
05-Mar-16 08:58 37.618365 -122.382041 139 19ft 0kts
05-Mar-16 08:59 37.618365 -122.382041 139 19ft 0kts
05-Mar-16 09:00 37.618365 -122.382041 139 19ft 0kts
05-Mar-16 09:01 37.618365 -122.382041 139 19ft 0kts
05-Mar-16 09:02 37.618365 -122.382041 139 19ft 0kts
05-Mar-16 09:03 37.618365 -122.382041 139 19ft 0kts
05-Mar-16 09:04 37.618365 -122.382041 139 19ft 0kts
05-Mar-16 09:05 37.618365 -122.382041 139 19ft 0kts
05-Mar-16 09:06 37.618365 -122.382041 139 19ft 0kts
05-Mar-16 09:07 37.618365 -122.382041 139 19ft 0kts
05-Mar-16 09:08 37.618365 -122.382041 139 19ft 0kts
05-Mar-16 09:09 37.618365 -122.382041 139 19ft 0kts
05-Mar-16 09:10 37.618365 -122.382041 139 19ft 0kts
05-Mar-16 09:11 37.618365 -122.382041 139 19ft 0kts
05-Mar-16 09:12 37.618365 -122.382041 139 19ft 0kts
05-Mar-16 09:13 37.618365 -122.382041 139 19ft 0kts
05-Mar-16 09:14 37.618365 -122.382041 139 19ft 0kts
05-Mar-16 09:15 37.618365 -122.382041 139 19ft 0kts
05-Mar-16 09:16 37.618365 -122.382041 139 19ft 0kts
05-Mar-16 09:17 37.618365 -122.382041 139 19ft 0kts
05-Mar-16 09:18 37.618470 -122.382156 139 19ft 2kts
05-Mar-16 09:19 37.618661 -122.382365 138 19ft 0kts
05-Mar-16 09:20 37.618916 -122.382393 24 19ft 0kts
05-Mar-16 09:21 37.619383 -122.381364 108 19ft 14kts
05-Mar-16 09:22 37.616568 -122.379688 203 19ft 14kts
05-Mar-16 09:23 37.614072 -122.381322 207 19ft 8kts
05-Mar-16 09:24 37.611183 -122.383222 207 19ft 16kts
05-Mar-16 09:25 37.609348 -122.384324 124 19ft 5kts
05-Mar-16 09:26 37.609244 -122.384114 120 19ft 0kts
05-Mar-16 09:27 37.609095 -122.383544 113 19ft 0kts
05-Mar-16 09:28 37.608800 -122.382824 108 19ft 7kts
05-Mar-16 09:29 37.609029 -122.382206 29 19ft 0kts
05-Mar-16 09:30 37.609029 -122.382206 29 19ft 0kts
05-Mar-16 09:31 37.624145 -122.372409 25 187ft 175kts
05-Mar-16 09:32 37.675222 -122.382259 307 3280ft 219kts
05-Mar-16 09:33 37.655700 -122.454558 221 4575ft 287kts
05-Mar-16 09:34 37.612961 -122.546630 239 6062ft 312kts
05-Mar-16 09:35 37.581038 -122.625280 238 7313ft 228kts
05-Mar-16 09:36 37.552122 -122.696825 239 9292ft 231kts
05-Mar-16 09:37 37.491584 -122.708794 174 11241ft 280kts
05-Mar-16 09:38 37.408658 -122.688788 172 13015ft 325kts
05-Mar-16 09:39 37.315917 -122.664482 172 14911ft 356kts
05-Mar-16 09:40 37.215541 -122.638095 172 16646ft 382kts
05-Mar-16 09:41 37.109764 -122.610346 172 18502ft 394kts
05-Mar-16 09:42 37.004412 -122.582857 172 19084ft 428kts
05-Mar-16 09:43 36.898513 -122.555245 174 22676ft 388kts
05-Mar-16 09:44 36.791075 -122.527362 174 24361ft 402kts
05-Mar-16 09:45 36.698806 -122.503456 174 24988ft 409kts
05-Mar-16 09:46 36.611602 -122.414137 133 25015ft 439kts
05-Mar-16 09:47 36.529126 -122.304741 140 24999ft 433kts
05-Mar-16 09:48 36.440650 -122.195122 140 25002ft 433kts
05-Mar-16 09:49 36.369911 -122.107855 140 25005ft 433kts
05-Mar-16 09:50 36.284708 -122.003065 140 25005ft 433kts
05-Mar-16 09:51 36.199024 -121.898026 141 25005ft 433kts
05-Mar-16 09:52 36.114372 -121.794001 141 24995ft 425kts
05-Mar-16 09:53 36.031841 -121.693479 141 24999ft 420kts
05-Mar-16 09:54 35.949111 -121.593007 141 24419ft 409kts
05-Mar-16 09:55 35.869939 -121.497226 140 22803ft 394kts
05-Mar-16 09:56 35.792995 -121.404323 140 21040ft 382kts
05-Mar-16 09:57 35.718209 -121.314289 139 19215ft 370kts
05-Mar-16 09:58 35.646185 -121.227793 140 17214ft 361kts
05-Mar-16 09:59 35.574492 -121.141974 140 15277ft 361kts
05-Mar-16 10:00 35.502575 -121.056140 140 13508ft 362kts
05-Mar-16 10:01 35.432094 -120.972714 151 11734ft 345kts
05-Mar-16 10:02 35.350480 -120.968857 192 10108ft 302kts
05-Mar-16 10:03 35.273445 -120.980828 192 8354ft 261kts
05-Mar-16 10:04 35.216571 -120.948806 95 6929ft 277kts
05-Mar-16 10:05 35.267493 -120.915234 307 5948ft 241kts
05-Mar-16 10:06 35.254709 -120.970113 266 5972ft 184kts
05-Mar-16 10:07 35.284583 -121.025010 302 5906ft 198kts
05-Mar-16 10:08 35.319057 -121.077544 316 5990ft 202kts
05-Mar-16 10:09 35.365634 -121.047211 52 6345ft 222kts
05-Mar-16 10:10 35.403782 -120.988695 52 6012ft 218kts
05-Mar-16 10:11 35.441378 -120.930916 62 5989ft 218kts
05-Mar-16 10:12 35.412309 -120.895268 157 5780ft 188kts
05-Mar-16 10:13 35.368853 -120.861009 142 4836ft 188kts
05-Mar-16 10:14 35.335872 -120.812255 129 3650ft 184kts
05-Mar-16 10:15 35.307969 -120.763944 127 2548ft 173kts
05-Mar-16 10:16 35.283053 -120.720446 127 1635ft 131kts
05-Mar-16 10:17 35.262134 -120.684041 127 960ft 133kts
05-Mar-16 10:18 35.240486 -120.646409 127 663ft 150kts
05-Mar-16 10:19 35.219668 -120.607110 126 3167ft 136kts
05-Mar-16 10:20 35.193190 -120.561036 130 4535ft 223kts
05-Mar-16 10:21 35.156292 -120.498744 122 4008ft 231kts
05-Mar-16 10:22 35.125751 -120.432196 122 3997ft 231kts
05-Mar-16 10:23 35.095961 -120.367181 122 3997ft 231kts
05-Mar-16 10:24 35.050218 -120.368334 231 4016ft 224kts
05-Mar-16 10:25 35.015228 -120.427885 232 3997ft 223kts
05-Mar-16 10:26 34.981539 -120.489917 261 3990ft 227kts
05-Mar-16 10:27 35.010910 -120.554113 302 3976ft 211kts
05-Mar-16 10:28 35.041773 -120.605573 302 3997ft 196kts
05-Mar-16 10:29 35.072825 -120.657264 302 3997ft 196kts
05-Mar-16 10:30 35.104386 -120.709798 302 3997ft 196kts
05-Mar-16 10:31 35.135694 -120.761905 302 3997ft 196kts
05-Mar-16 10:32 35.166966 -120.813946 302 3997ft 196kts
05-Mar-16 10:33 35.198485 -120.866394 302 3997ft 196kts
05-Mar-16 10:34 35.230310 -120.919346 302 3997ft 196kts
05-Mar-16 10:35 35.262201 -120.972403 302 3997ft 196kts
05-Mar-16 10:36 35.294210 -121.025650 302 3997ft 196kts
05-Mar-16 10:37 35.327086 -121.078763 325 3979ft 200kts
05-Mar-16 10:38 35.376703 -121.058914 32 3998ft 206kts
05-Mar-16 10:39 35.413904 -121.014165 101 4035ft 195kts
05-Mar-16 10:40 35.406288 -120.950505 102 3998ft 194kts
05-Mar-16 10:41 35.383538 -120.896306 128 3998ft 188kts
05-Mar-16 10:42 35.355169 -120.846374 129 3998ft 188kts
05-Mar-16 10:43 35.325265 -120.794121 128 3740ft 197kts
05-Mar-16 10:44 35.295417 -120.742068 127 2503ft 194kts
05-Mar-16 10:45 35.268412 -120.694939 127 1169ft 135kts
05-Mar-16 10:46 35.247923 -120.659313 127 480ft 127kts
05-Mar-16 10:47 35.234052 -120.635207 124 217ft 29kts
05-Mar-16 10:48 35.234666 -120.634378 305 217ft 5kts
05-Mar-16 10:49 35.237057 -120.638608 305 217ft 12kts
05-Mar-16 10:50 35.237386 -120.639181 305 217ft 0kts
05-Mar-16 10:51 35.237411 -120.639224 305 217ft 4kts
05-Mar-16 10:52 35.238966 -120.641756 359 217ft 4kts
05-Mar-16 10:53 35.239123 -120.641757 359 217ft 0kts
05-Mar-16 10:54 35.239123 -120.641757 359 217ft 0kts
05-Mar-16 10:55 35.239123 -120.641757 359 217ft 0kts

Navigation Log

Ident Type
Flight plan parsing failed, navigation log unavailable